Time;durP1;ratioP1;P1;durP2;ratioP2;P2;SDS_P1;SDS_P2;PMS_P1;PMS_P2;Temp;Humidity;BMP_temperature;BMP_pressure;BME280_temperature;BME280_humidity;BME280_pressure;Samples;Min_cycle;Max_cycle;Signal;HPM_P1;HPM_P2
2021/08/31 00:00:13;;;;;;;26.52;7.07;;;;;;;;;;5113087;28;20020;-71
2021/08/31 00:02:39;;;;;;;22.80;6.38;;;;;;;;;;5092845;28;20024;-72
2021/08/31 00:05:05;;;;;;;12.45;6.20;;;;;;;;;;5095845;28;20042;-73
2021/08/31 00:07:31;;;;;;;15.65;6.25;;;;;;;;;;5095262;28;20051;-72
2021/08/31 00:09:58;;;;;;;14.55;6.80;;;;;;;;;;5114067;28;20031;-72
2021/08/31 00:12:24;;;;;;;17.83;6.55;;;;;;;;;;5111400;28;20580;-71
2021/08/31 00:14:50;;;;;;;19.83;6.32;;;;;;;;;;5113308;28;20118;-73
2021/08/31 00:17:17;;;;;;;15.18;6.35;;;;;;;;;;5112712;28;20485;-73
2021/08/31 00:19:44;;;;;;;17.65;6.20;;;;;;;;;;5113308;28;20011;-72
2021/08/31 00:22:10;;;;;;;14.55;5.55;;;;;;;;;;5112992;28;20027;-73
2021/08/31 00:24:36;;;;;;;20.08;6.35;;;;;;;;;;5090576;28;20051;-73
2021/08/31 00:27:02;;;;;;;17.05;6.20;;;;;;;;;;5102337;28;20020;-72
2021/08/31 00:29:28;;;;;;;18.63;6.82;;;;;;;;;;5094863;28;20073;-71
2021/08/31 00:31:54;;;;;;;18.67;6.72;;;;;;;;;;5113224;28;20024;-73
2021/08/31 00:34:20;;;;;;;19.55;6.82;;;;;;;;;;5111514;28;20031;-73
2021/08/31 00:36:47;;;;;;;22.73;8.10;;;;;;;;;;5113087;28;20019;-72
2021/08/31 00:39:13;;;;;;;15.55;6.85;;;;;;;;;;5113207;28;20096;-71
2021/08/31 00:41:39;;;;;;;17.73;6.97;;;;;;;;;;5113330;28;20028;-71
2021/08/31 00:44:05;;;;;;;17.75;6.00;;;;;;;;;;5107905;28;20015;-71
2021/08/31 00:46:31;;;;;;;19.55;6.40;;;;;;;;;;5111397;28;20062;-72
2021/08/31 00:48:57;;;;;;;20.50;7.13;;;;;;;;;;5113283;28;20052;-69
2021/08/31 00:51:23;;;;;;;24.50;7.13;;;;;;;;;;5112383;28;20050;-72
2021/08/31 00:53:50;;;;;;;19.85;7.35;;;;;;;;;;5109854;28;20412;-70
2021/08/31 00:56:16;;;;;;;28.85;7.60;;;;;;;;;;5113227;28;20028;-70
2021/08/31 00:58:42;;;;;;;19.77;6.97;;;;;;;;;;5112203;28;20012;-71
2021/08/31 01:01:08;;;;;;;17.85;7.25;;;;;;;;;;5111901;28;20462;-69
2021/08/31 01:03:35;;;;;;;22.55;6.97;;;;;;;;;;5111911;28;20039;-70
2021/08/31 01:06:01;;;;;;;21.05;7.30;;;;;;;;;;5112508;28;20061;-70
2021/08/31 01:08:28;;;;;;;20.88;7.93;;;;;;;;;;5094608;28;20036;-70
2021/08/31 01:10:54;;;;;;;16.73;7.30;;;;;;;;;;5112367;28;20037;-71
2021/08/31 01:13:21;;;;;;;19.85;6.90;;;;;;;;;;5110558;28;20019;-71
2021/08/31 01:15:47;;;;;;;14.15;6.63;;;;;;;;;;5112057;28;20020;-70
2021/08/31 01:18:21;;;;;;;25.45;8.50;;;;;;;;;;5094357;28;20132;-71
2021/08/31 01:20:51;;;;;;;20.58;8.52;;;;;;;;;;5111957;28;20020;-71
2021/08/31 01:23:18;;;;;;;26.50;9.95;;;;;;;;;;5111188;28;20024;-72
2021/08/31 01:25:44;;;;;;;20.60;8.57;;;;;;;;;;5111917;28;20027;-70
2021/08/31 01:28:17;;;;;;;22.60;8.10;;;;;;;;;;5107929;28;20451;-71
2021/08/31 01:30:44;;;;;;;19.95;8.15;;;;;;;;;;5111119;28;20111;-70
2021/08/31 01:33:10;;;;;;;21.90;8.85;;;;;;;;;;5092698;28;20027;-70
2021/08/31 01:35:36;;;;;;;19.73;8.75;;;;;;;;;;5111367;28;20051;-70
2021/08/31 01:38:02;;;;;;;19.73;9.10;;;;;;;;;;5093462;28;20019;-70
2021/08/31 01:40:28;;;;;;;22.38;9.30;;;;;;;;;;5112060;28;20027;-70
2021/08/31 01:42:54;;;;;;;27.40;10.68;;;;;;;;;;5092045;28;20023;-70
2021/08/31 01:45:20;;;;;;;19.52;8.77;;;;;;;;;;5089600;28;20035;-70
2021/08/31 01:47:46;;;;;;;21.65;10.18;;;;;;;;;;5096445;28;20030;-70
2021/08/31 01:50:13;;;;;;;20.70;10.07;;;;;;;;;;5078624;28;20071;-70
2021/08/31 01:52:39;;;;;;;25.90;11.02;;;;;;;;;;5091473;28;20104;-70
2021/08/31 01:55:06;;;;;;;23.55;10.48;;;;;;;;;;5111211;28;20020;-70
2021/08/31 01:57:32;;;;;;;21.15;10.98;;;;;;;;;;5111901;28;20015;-70
2021/08/31 01:59:58;;;;;;;30.83;10.60;;;;;;;;;;5093369;28;20028;-70
2021/08/31 02:02:24;;;;;;;27.05;10.40;;;;;;;;;;5109713;28;20051;-70
2021/08/31 02:04:50;;;;;;;26.55;11.55;;;;;;;;;;5112080;28;20429;-70
2021/08/31 02:07:16;;;;;;;20.23;9.43;;;;;;;;;;5111610;28;20443;-70
2021/08/31 02:09:42;;;;;;;27.38;10.05;;;;;;;;;;5093629;28;20026;-70
2021/08/31 02:12:08;;;;;;;19.67;11.27;;;;;;;;;;5091922;28;20404;-70
2021/08/31 02:14:34;;;;;;;19.50;10.35;;;;;;;;;;5111076;28;20062;-70
2021/08/31 02:17:00;;;;;;;21.67;11.32;;;;;;;;;;5111387;28;20019;-70
2021/08/31 02:19:26;;;;;;;26.13;10.82;;;;;;;;;;5102302;28;20019;-69
2021/08/31 02:21:52;;;;;;;23.13;9.88;;;;;;;;;;5090013;28;20051;-70
2021/08/31 02:24:18;;;;;;;24.75;12.85;;;;;;;;;;5108981;28;20016;-70
2021/08/31 02:26:44;;;;;;;28.90;11.65;;;;;;;;;;5106620;28;20036;-70
2021/08/31 02:29:10;;;;;;;24.83;11.75;;;;;;;;;;5111156;28;20027;-70
2021/08/31 02:31:36;;;;;;;27.90;11.05;;;;;;;;;;5110803;28;20027;-70
2021/08/31 02:34:03;;;;;;;24.00;12.45;;;;;;;;;;5110179;28;20067;-71
2021/08/31 02:36:29;;;;;;;31.67;13.57;;;;;;;;;;5109990;28;20552;-71
2021/08/31 02:38:55;;;;;;;31.83;12.82;;;;;;;;;;5110909;28;20096;-72
2021/08/31 02:41:21;;;;;;;21.92;11.55;;;;;;;;;;5110752;28;20050;-71
2021/08/31 02:43:47;;;;;;;25.05;13.02;;;;;;;;;;5110268;28;20019;-70
2021/08/31 02:46:13;;;;;;;30.23;12.90;;;;;;;;;;5107820;28;20028;-71
2021/08/31 02:48:40;;;;;;;23.67;12.90;;;;;;;;;;5098407;28;20086;-71
2021/08/31 02:51:06;;;;;;;30.98;13.75;;;;;;;;;;5089932;28;20503;-71
2021/08/31 02:53:32;;;;;;;27.20;15.70;;;;;;;;;;5108817;28;20065;-71
2021/08/31 02:55:58;;;;;;;30.67;14.98;;;;;;;;;;5103904;28;20028;-71
2021/08/31 02:58:24;;;;;;;31.60;15.38;;;;;;;;;;5101457;28;20023;-71
2021/08/31 03:01:04;;;;;;;38.42;16.63;;;;;;;;;;5110546;28;20020;-71
2021/08/31 03:03:30;;;;;;;31.08;16.27;;;;;;;;;;5085312;28;20497;-71
2021/08/31 03:05:56;;;;;;;29.98;15.75;;;;;;;;;;5110352;28;20089;-71
2021/08/31 03:08:22;;;;;;;28.38;16.02;;;;;;;;;;5092378;28;20031;-70
2021/08/31 03:10:48;;;;;;;39.05;17.65;;;;;;;;;;5091783;28;20440;-70
2021/08/31 03:13:14;;;;;;;34.63;16.05;;;;;;;;;;5083251;28;20074;-70
2021/08/31 03:15:41;;;;;;;33.97;16.00;;;;;;;;;;5110248;28;20042;-70
2021/08/31 03:18:07;;;;;;;29.25;15.77;;;;;;;;;;5111124;28;20028;-70
2021/08/31 03:20:33;;;;;;;35.08;15.48;;;;;;;;;;5110572;28;20050;-70
2021/08/31 03:22:59;;;;;;;29.17;13.95;;;;;;;;;;5109528;28;20024;-70
2021/08/31 03:25:25;;;;;;;30.52;16.20;;;;;;;;;;5110604;28;20031;-70
2021/08/31 03:27:51;;;;;;;27.95;15.40;;;;;;;;;;5110945;28;20149;-70
2021/08/31 03:30:19;;;;;;;32.58;15.50;;;;;;;;;;5110290;28;20126;-70
2021/08/31 03:32:45;;;;;;;33.83;17.25;;;;;;;;;;5109670;28;20106;-70
2021/08/31 03:35:12;;;;;;;26.15;15.10;;;;;;;;;;5110596;28;20036;-70
2021/08/31 03:37:38;;;;;;;39.30;17.70;;;;;;;;;;5092174;28;20028;-70
2021/08/31 03:40:04;;;;;;;30.95;16.48;;;;;;;;;;5107326;28;20173;-70
2021/08/31 03:42:30;;;;;;;37.65;19.30;;;;;;;;;;5107572;28;20046;-71
2021/08/31 03:44:56;;;;;;;31.05;16.70;;;;;;;;;;5103522;28;20019;-70
2021/08/31 03:47:22;;;;;;;31.05;17.30;;;;;;;;;;5083736;28;20020;-71
2021/08/31 03:49:48;;;;;;;36.22;15.90;;;;;;;;;;5096390;28;20031;-70
2021/08/31 03:52:14;;;;;;;30.58;15.55;;;;;;;;;;5093373;28;20035;-70
2021/08/31 03:54:40;;;;;;;30.00;15.57;;;;;;;;;;5112993;28;20042;-71
2021/08/31 03:57:06;;;;;;;43.75;16.80;;;;;;;;;;5095815;28;20019;-70
2021/08/31 03:59:33;;;;;;;33.75;16.27;;;;;;;;;;5094980;28;20043;-70
2021/08/31 04:01:59;;;;;;;30.17;15.52;;;;;;;;;;5094898;28;20021;-70
2021/08/31 04:04:25;;;;;;;27.52;14.15;;;;;;;;;;5112799;28;20436;-71
2021/08/31 04:06:51;;;;;;;30.05;15.70;;;;;;;;;;5113988;28;20031;-70
2021/08/31 04:09:17;;;;;;;26.45;13.43;;;;;;;;;;5113265;28;20378;-71
2021/08/31 04:11:43;;;;;;;23.52;12.98;;;;;;;;;;5112624;28;20099;-71
2021/08/31 04:14:09;;;;;;;28.23;14.15;;;;;;;;;;5111645;28;20107;-70
2021/08/31 04:16:35;;;;;;;31.70;13.02;;;;;;;;;;5113807;28;20031;-70
2021/08/31 04:19:01;;;;;;;27.40;13.35;;;;;;;;;;5113351;28;20040;-70
2021/08/31 04:21:27;;;;;;;29.30;13.27;;;;;;;;;;5113095;28;20157;-70
2021/08/31 04:23:53;;;;;;;26.00;13.48;;;;;;;;;;5112627;28;20020;-70
2021/08/31 04:26:19;;;;;;;28.45;14.98;;;;;;;;;;5113748;28;20034;-71
2021/08/31 04:28:45;;;;;;;30.25;13.55;;;;;;;;;;5113113;28;20024;-70
2021/08/31 04:31:11;;;;;;;21.33;13.30;;;;;;;;;;5110452;28;20035;-70
2021/08/31 04:33:37;;;;;;;26.15;13.80;;;;;;;;;;5112709;28;20032;-70
2021/08/31 04:36:04;;;;;;;27.90;13.27;;;;;;;;;;5113244;28;20229;-70
2021/08/31 04:38:30;;;;;;;34.22;14.73;;;;;;;;;;5113572;28;20111;-70
2021/08/31 04:40:56;;;;;;;37.67;15.23;;;;;;;;;;5112647;28;20051;-70
2021/08/31 04:43:22;;;;;;;28.30;13.18;;;;;;;;;;5111879;28;20082;-71
2021/08/31 04:45:48;;;;;;;21.77;12.25;;;;;;;;;;5109346;28;20174;-70
2021/08/31 04:48:14;;;;;;;26.88;13.63;;;;;;;;;;5112001;28;20030;-70
2021/08/31 04:50:40;;;;;;;25.55;13.65;;;;;;;;;;5094448;28;20598;-70
2021/08/31 04:53:06;;;;;;;28.73;13.20;;;;;;;;;;5091960;28;20039;-70
2021/08/31 04:55:32;;;;;;;21.52;13.40;;;;;;;;;;5094087;28;20023;-71
2021/08/31 04:57:58;;;;;;;28.33;13.02;;;;;;;;;;5093776;28;20027;-71
2021/08/31 05:00:24;;;;;;;26.95;13.32;;;;;;;;;;5112453;28;20107;-70
2021/08/31 05:02:51;;;;;;;22.95;12.80;;;;;;;;;;5090873;28;20027;-70
2021/08/31 05:05:17;;;;;;;35.85;13.65;;;;;;;;;;5112881;28;20020;-70
2021/08/31 05:07:44;;;;;;;30.00;15.65;;;;;;;;;;5112868;28;20451;-70
2021/08/31 05:10:10;;;;;;;29.80;13.75;;;;;;;;;;5112612;28;20024;-70
2021/08/31 05:12:36;;;;;;;26.40;12.15;;;;;;;;;;5110989;28;20611;-70
2021/08/31 05:15:03;;;;;;;38.63;13.68;;;;;;;;;;5111856;28;20628;-70
2021/08/31 05:17:29;;;;;;;23.08;11.90;;;;;;;;;;5108128;28;20024;-70
2021/08/31 05:19:56;;;;;;;22.92;12.35;;;;;;;;;;5112202;28;20022;-70
2021/08/31 05:22:23;;;;;;;28.25;12.43;;;;;;;;;;5110735;28;20022;-70
2021/08/31 05:24:49;;;;;;;19.67;12.13;;;;;;;;;;5112858;28;20024;-70
2021/08/31 05:27:15;;;;;;;23.98;12.10;;;;;;;;;;5110456;28;20042;-70
2021/08/31 05:29:41;;;;;;;23.92;11.48;;;;;;;;;;5106104;28;20039;-70
2021/08/31 05:32:07;;;;;;;23.23;11.32;;;;;;;;;;5110937;28;20024;-70
2021/08/31 05:34:33;;;;;;;24.67;11.73;;;;;;;;;;5093271;28;20057;-70
2021/08/31 05:37:00;;;;;;;27.45;12.35;;;;;;;;;;5109216;28;20094;-70
2021/08/31 05:39:33;;;;;;;22.48;12.85;;;;;;;;;;5105254;28;20027;-70
2021/08/31 05:41:59;;;;;;;23.55;11.57;;;;;;;;;;5109033;28;20027;-71
2021/08/31 05:44:25;;;;;;;20.33;10.90;;;;;;;;;;5105214;27;20035;-70
2021/08/31 05:46:52;;;;;;;19.52;11.48;;;;;;;;;;5105929;28;20024;-70
2021/08/31 05:49:18;;;;;;;22.27;12.13;;;;;;;;;;5106114;28;20088;-70
2021/08/31 05:51:44;;;;;;;21.05;11.15;;;;;;;;;;5106543;28;20131;-70
2021/08/31 05:54:10;;;;;;;19.02;11.35;;;;;;;;;;5103581;28;20153;-70
2021/08/31 05:56:36;;;;;;;22.95;10.70;;;;;;;;;;5104809;28;20073;-70
2021/08/31 05:59:02;;;;;;;17.58;10.90;;;;;;;;;;5106652;28;20020;-71
2021/08/31 06:01:28;;;;;;;22.02;10.70;;;;;;;;;;5088430;28;20024;-70
2021/08/31 06:03:54;;;;;;;16.20;11.15;;;;;;;;;;5107221;28;20062;-70
2021/08/31 06:06:20;;;;;;;23.17;12.50;;;;;;;;;;5088649;28;20529;-70
2021/08/31 06:08:46;;;;;;;22.80;12.82;;;;;;;;;;5106052;28;20480;-70
2021/08/31 06:11:16;;;;;;;25.23;11.93;;;;;;;;;;5104314;28;20038;-71
2021/08/31 06:13:42;;;;;;;21.55;12.38;;;;;;;;;;5104592;28;20485;-71
2021/08/31 06:16:08;;;;;;;30.50;12.48;;;;;;;;;;5084217;28;20039;-70
2021/08/31 06:18:34;;;;;;;21.13;11.88;;;;;;;;;;5106471;28;20039;-70
2021/08/31 06:21:00;;;;;;;27.00;12.63;;;;;;;;;;5104180;28;20055;-70
2021/08/31 06:23:26;;;;;;;24.73;12.65;;;;;;;;;;5104057;28;20055;-70
2021/08/31 06:25:52;;;;;;;22.02;12.85;;;;;;;;;;5105544;28;20028;-71
2021/08/31 06:28:18;;;;;;;30.08;11.90;;;;;;;;;;5106800;27;20085;-70
2021/08/31 06:30:44;;;;;;;24.23;12.27;;;;;;;;;;5105386;28;20043;-71
2021/08/31 06:33:10;;;;;;;21.50;12.07;;;;;;;;;;5103267;28;20558;-71
2021/08/31 06:35:36;;;;;;;19.38;10.82;;;;;;;;;;5105391;28;20016;-70
2021/08/31 06:38:03;;;;;;;28.88;13.88;;;;;;;;;;5107096;28;20788;-70
2021/08/31 06:40:29;;;;;;;27.13;11.13;;;;;;;;;;5085036;28;20031;-70
2021/08/31 06:42:55;;;;;;;21.38;10.95;;;;;;;;;;5084900;28;20522;-70
2021/08/31 06:45:21;;;;;;;28.15;11.65;;;;;;;;;;5105172;28;20023;-70
2021/08/31 06:47:47;;;;;;;22.25;10.98;;;;;;;;;;5104290;28;20086;-70
2021/08/31 06:50:16;;;;;;;23.77;11.20;;;;;;;;;;5103828;28;20040;-70
2021/08/31 06:52:42;;;;;;;25.42;10.68;;;;;;;;;;5085537;28;20024;-70
2021/08/31 06:55:09;;;;;;;22.50;11.05;;;;;;;;;;5104037;28;20034;-71
2021/08/31 06:57:35;;;;;;;19.92;11.32;;;;;;;;;;5106145;28;20045;-71
2021/08/31 07:00:01;;;;;;;21.95;10.23;;;;;;;;;;5105336;28;20031;-71
2021/08/31 07:02:27;;;;;;;23.60;10.68;;;;;;;;;;5104172;28;20032;-71
2021/08/31 07:04:53;;;;;;;26.58;10.85;;;;;;;;;;5107247;28;20048;-70
2021/08/31 07:07:19;;;;;;;30.33;10.02;;;;;;;;;;5106381;28;20711;-72
2021/08/31 07:09:45;;;;;;;22.90;11.13;;;;;;;;;;5104613;28;20020;-71
2021/08/31 07:12:13;;;;;;;16.83;9.52;;;;;;;;;;5101864;28;20046;-71
2021/08/31 07:14:39;;;;;;;24.77;11.57;;;;;;;;;;5101435;28;20023;-71
2021/08/31 07:17:05;;;;;;;23.33;10.07;;;;;;;;;;5083390;28;20020;-71
2021/08/31 07:19:31;;;;;;;18.00;9.25;;;;;;;;;;5080285;28;20409;-72
2021/08/31 07:21:57;;;;;;;17.55;9.00;;;;;;;;;;5102925;28;20032;-71
2021/08/31 07:24:24;;;;;;;21.73;8.60;;;;;;;;;;5103274;28;20019;-71
2021/08/31 07:26:50;;;;;;;23.33;10.32;;;;;;;;;;5083567;28;20024;-71
2021/08/31 07:29:16;;;;;;;24.55;9.70;;;;;;;;;;5086980;28;20031;-70
2021/08/31 07:31:42;;;;;;;22.90;8.80;;;;;;;;;;5106463;28;20035;-71
2021/08/31 07:34:09;;;;;;;19.40;7.38;;;;;;;;;;5078897;28;20027;-73
2021/08/31 07:36:35;;;;;;;20.67;7.15;;;;;;;;;;5106890;28;20497;-71
2021/08/31 07:39:01;;;;;;;17.50;8.52;;;;;;;;;;5106617;28;20560;-71
2021/08/31 07:41:27;;;;;;;19.00;8.07;;;;;;;;;;5106154;28;20043;-70
2021/08/31 07:43:54;;;;;;;20.98;7.78;;;;;;;;;;5104829;28;20046;-70
2021/08/31 07:46:20;;;;;;;17.63;6.95;;;;;;;;;;5105831;28;20184;-70
2021/08/31 07:48:47;;;;;;;24.85;8.02;;;;;;;;;;5106092;28;20020;-71
2021/08/31 07:51:13;;;;;;;21.08;7.20;;;;;;;;;;5105790;28;20047;-72
2021/08/31 07:53:40;;;;;;;25.33;7.80;;;;;;;;;;5083016;28;20054;-71
2021/08/31 07:56:06;;;;;;;19.17;7.07;;;;;;;;;;5087288;28;20043;-72
2021/08/31 07:58:36;;;;;;;21.48;7.22;;;;;;;;;;5108759;28;20016;-71
2021/08/31 08:01:03;;;;;;;18.48;7.35;;;;;;;;;;5115078;27;20032;-71
2021/08/31 08:03:29;;;;;;;18.80;6.72;;;;;;;;;;5108963;27;20539;-72
2021/08/31 08:05:55;;;;;;;22.33;6.75;;;;;;;;;;5110880;28;20039;-70
2021/08/31 08:08:21;;;;;;;15.70;7.15;;;;;;;;;;5103740;28;20496;-70
2021/08/31 08:10:47;;;;;;;21.13;7.05;;;;;;;;;;5106669;28;20480;-72
2021/08/31 08:13:13;;;;;;;20.60;7.05;;;;;;;;;;5103338;28;21699;-72
2021/08/31 08:15:39;;;;;;;21.08;6.75;;;;;;;;;;5084312;28;20440;-71
2021/08/31 08:18:05;;;;;;;14.48;6.00;;;;;;;;;;5104798;28;20030;-70
2021/08/31 08:20:32;;;;;;;13.45;6.15;;;;;;;;;;5084357;28;20016;-72
2021/08/31 08:22:58;;;;;;;22.05;7.50;;;;;;;;;;5100018;28;20020;-70
2021/08/31 08:25:24;;;;;;;19.80;5.82;;;;;;;;;;5103374;28;20027;-72
2021/08/31 08:27:50;;;;;;;14.82;5.82;;;;;;;;;;5098010;28;20032;-73
2021/08/31 08:30:16;;;;;;;18.08;6.55;;;;;;;;;;5098497;28;20059;-71
2021/08/31 08:32:42;;;;;;;19.98;7.60;;;;;;;;;;5103350;28;20539;-70
2021/08/31 08:35:10;;;;;;;16.35;5.65;;;;;;;;;;5105275;28;20023;-71
2021/08/31 08:37:36;;;;;;;19.38;6.28;;;;;;;;;;5086398;28;20400;-71
2021/08/31 08:40:03;;;;;;;16.30;5.75;;;;;;;;;;5104378;28;20051;-72
2021/08/31 08:42:29;;;;;;;17.30;6.05;;;;;;;;;;5101948;27;20027;-71
2021/08/31 08:44:55;;;;;;;18.42;5.90;;;;;;;;;;5084405;28;20019;-74
2021/08/31 08:47:21;;;;;;;25.05;6.55;;;;;;;;;;5104367;28;20055;-73
2021/08/31 08:49:49;;;;;;;14.40;5.25;;;;;;;;;;5103394;28;20054;-72
2021/08/31 08:52:15;;;;;;;17.23;6.60;;;;;;;;;;5102045;28;20115;-71
2021/08/31 08:54:42;;;;;;;15.27;5.50;;;;;;;;;;5103600;28;20027;-73
2021/08/31 08:57:08;;;;;;;14.65;5.78;;;;;;;;;;5087771;28;20388;-72
2021/08/31 08:59:39;;;;;;;16.25;6.40;;;;;;;;;;5104610;28;20024;-73
2021/08/31 09:02:05;;;;;;;15.68;5.47;;;;;;;;;;5103990;28;20041;-71
2021/08/31 09:04:45;;;;;;;16.83;5.53;;;;;;;;;;5105022;28;20035;-73
2021/08/31 09:07:17;;;;;;;13.88;6.60;;;;;;;;;;5086024;28;20508;-71
2021/08/31 09:09:43;;;;;;;16.63;6.05;;;;;;;;;;5104181;28;20027;-70
2021/08/31 09:12:28;;;;;;;17.85;6.03;;;;;;;;;;5082253;28;20031;-73
2021/08/31 09:14:54;;;;;;;32.60;10.13;;;;;;;;;;5103263;28;20438;-70
2021/08/31 09:17:20;;;;;;;18.05;6.03;;;;;;;;;;5104444;28;20528;-70
2021/08/31 09:19:46;;;;;;;25.00;8.23;;;;;;;;;;5104576;28;20965;-70
2021/08/31 09:22:20;;;;;;;14.57;6.45;;;;;;;;;;5081201;28;20080;-69
2021/08/31 09:24:58;;;;;;;24.10;7.78;;;;;;;;;;5103742;28;20474;-72
2021/08/31 09:27:33;;;;;;;20.00;6.40;;;;;;;;;;5106094;28;20015;-71
2021/08/31 09:30:19;;;;;;;18.90;5.32;;;;;;;;;;5102311;28;20106;-71
2021/08/31 09:33:06;;;;;;;19.75;6.47;;;;;;;;;;5101223;28;20568;-72
2021/08/31 09:35:33;;;;;;;15.98;5.90;;;;;;;;;;5100793;28;20027;-73
2021/08/31 09:38:01;;;;;;;15.02;5.28;;;;;;;;;;5103787;28;20019;-71
2021/08/31 09:40:30;;;;;;;28.05;6.55;;;;;;;;;;5105093;28;20027;-71
2021/08/31 09:43:04;;;;;;;17.60;6.10;;;;;;;;;;5100164;28;20024;-71
2021/08/31 09:45:31;;;;;;;19.92;6.18;;;;;;;;;;5102702;28;20031;-71
2021/08/31 09:47:58;;;;;;;18.95;6.28;;;;;;;;;;5084285;28;20084;-73
2021/08/31 09:50:28;;;;;;;18.98;6.25;;;;;;;;;;5101048;28;20047;-72
2021/08/31 09:53:05;;;;;;;17.27;5.93;;;;;;;;;;5099337;28;20070;-69
2021/08/31 09:55:31;;;;;;;14.75;4.68;;;;;;;;;;5087082;28;20028;-72
2021/08/31 09:58:07;;;;;;;14.52;5.15;;;;;;;;;;5103055;28;20016;-71
2021/08/31 10:00:33;;;;;;;19.17;6.00;;;;;;;;;;5102853;28;20428;-72
2021/08/31 10:03:00;;;;;;;21.40;5.78;;;;;;;;;;5099957;28;20031;-71
2021/08/31 10:05:28;;;;;;;18.30;6.10;;;;;;;;;;5104968;28;20023;-72
2021/08/31 10:07:54;;;;;;;17.42;5.63;;;;;;;;;;5104935;28;20035;-72
2021/08/31 10:10:20;;;;;;;13.52;5.28;;;;;;;;;;5103426;28;20024;-73
2021/08/31 10:12:48;;;;;;;15.32;5.60;;;;;;;;;;5100463;28;20065;-71
2021/08/31 10:15:15;;;;;;;18.38;5.80;;;;;;;;;;5100469;28;20059;-72
2021/08/31 10:17:44;;;;;;;16.83;5.13;;;;;;;;;;5103297;28;20058;-71
2021/08/31 10:20:13;;;;;;;20.98;6.10;;;;;;;;;;5102382;28;20023;-74
2021/08/31 10:22:39;;;;;;;17.13;5.53;;;;;;;;;;5078229;28;20022;-72
2021/08/31 10:25:05;;;;;;;19.48;6.10;;;;;;;;;;5101624;28;20024;-72
2021/08/31 10:27:35;;;;;;;24.88;7.15;;;;;;;;;;5101307;28;20024;-72
2021/08/31 10:30:19;;;;;;;22.55;6.50;;;;;;;;;;5100188;28;20445;-72
2021/08/31 10:32:46;;;;;;;18.15;5.70;;;;;;;;;;5097579;28;20019;-72
2021/08/31 10:35:31;;;;;;;21.73;5.38;;;;;;;;;;5081472;28;20405;-72
2021/08/31 10:37:58;;;;;;;28.58;6.63;;;;;;;;;;5087470;28;20027;-72
2021/08/31 10:40:31;;;;;;;16.65;6.03;;;;;;;;;;5108146;28;20035;-72
2021/08/31 10:42:57;;;;;;;15.75;6.00;;;;;;;;;;5086044;28;20058;-69
2021/08/31 10:45:29;;;;;;;20.67;5.95;;;;;;;;;;5104592;28;20034;-70
2021/08/31 10:47:55;;;;;;;19.08;5.78;;;;;;;;;;5108115;28;20080;-71
2021/08/31 10:50:25;;;;;;;18.38;5.85;;;;;;;;;;5104413;28;20528;-70
2021/08/31 10:52:53;;;;;;;19.95;5.72;;;;;;;;;;5082681;28;20072;-69
2021/08/31 10:55:19;;;;;;;21.70;6.13;;;;;;;;;;5108674;28;20024;-70
2021/08/31 10:57:45;;;;;;;22.58;6.28;;;;;;;;;;5115398;28;20024;-71
2021/08/31 11:00:17;;;;;;;27.40;6.22;;;;;;;;;;5097195;28;20391;-70
2021/08/31 11:02:46;;;;;;;17.73;5.95;;;;;;;;;;5110425;28;20505;-69
2021/08/31 11:05:18;;;;;;;20.70;6.40;;;;;;;;;;5112196;28;20035;-72
2021/08/31 11:07:48;;;;;;;30.60;7.32;;;;;;;;;;5115312;28;20511;-70
2021/08/31 11:10:20;;;;;;;21.45;5.43;;;;;;;;;;5115540;28;20023;-71
2021/08/31 11:12:47;;;;;;;18.92;5.72;;;;;;;;;;5112666;27;20019;-71
2021/08/31 11:15:23;;;;;;;15.23;6.25;;;;;;;;;;5097383;28;20047;-71
2021/08/31 11:17:51;;;;;;;24.10;6.30;;;;;;;;;;5096338;28;20027;-71
2021/08/31 11:20:24;;;;;;;20.45;6.13;;;;;;;;;;5112624;28;20028;-71
2021/08/31 11:22:53;;;;;;;19.35;5.65;;;;;;;;;;5108931;28;20432;-72
2021/08/31 11:25:46;;;;;;;17.67;6.53;;;;;;;;;;5110422;27;20553;-72
2021/08/31 11:28:20;;;;;;;21.63;6.13;;;;;;;;;;5109460;27;20038;-71
2021/08/31 11:30:53;;;;;;;21.25;6.60;;;;;;;;;;5115217;28;20272;-72
2021/08/31 11:33:25;;;;;;;16.00;6.05;;;;;;;;;;5111985;27;20055;-71
2021/08/31 11:35:53;;;;;;;18.63;6.00;;;;;;;;;;5110281;27;20348;-71
2021/08/31 11:38:37;;;;;;;19.02;5.68;;;;;;;;;;5114353;27;20026;-71
2021/08/31 11:41:18;;;;;;;24.02;6.20;;;;;;;;;;5113466;28;20050;-73
2021/08/31 11:43:45;;;;;;;24.15;6.55;;;;;;;;;;5111971;27;20020;-69
2021/08/31 11:46:12;;;;;;;19.02;5.70;;;;;;;;;;5112903;28;20078;-69
2021/08/31 11:48:38;;;;;;;24.27;6.13;;;;;;;;;;5111325;28;20488;-70
2021/08/31 11:51:05;;;;;;;22.35;5.88;;;;;;;;;;5110763;27;20046;-69
2021/08/31 11:53:31;;;;;;;23.92;6.75;;;;;;;;;;5108319;27;20114;-71
2021/08/31 11:55:59;;;;;;;24.42;5.53;;;;;;;;;;5114877;28;20508;-71
2021/08/31 11:58:26;;;;;;;14.93;5.68;;;;;;;;;;5113858;28;20019;-69
2021/08/31 12:00:52;;;;;;;17.88;6.05;;;;;;;;;;5112002;28;20031;-69
2021/08/31 12:03:23;;;;;;;24.83;5.93;;;;;;;;;;5110876;28;20110;-75
2021/08/31 12:05:52;;;;;;;26.13;7.18;;;;;;;;;;5112418;28;20043;-69
2021/08/31 12:08:18;;;;;;;18.25;6.10;;;;;;;;;;5109000;28;20092;-69
2021/08/31 12:10:44;;;;;;;25.60;6.28;;;;;;;;;;5108060;28;20061;-71
2021/08/31 12:13:11;;;;;;;23.50;6.15;;;;;;;;;;5104112;28;20039;-71
2021/08/31 12:15:37;;;;;;;18.20;6.93;;;;;;;;;;5110555;28;20042;-70
2021/08/31 12:18:04;;;;;;;17.15;6.00;;;;;;;;;;5109070;28;20100;-71
2021/08/31 12:20:31;;;;;;;20.55;6.15;;;;;;;;;;5090071;28;20023;-70
2021/08/31 12:23:01;;;;;;;18.55;7.10;;;;;;;;;;5106105;28;20027;-70
2021/08/31 12:25:39;;;;;;;25.02;6.70;;;;;;;;;;5104927;28;20020;-69
2021/08/31 12:28:05;;;;;;;20.42;5.85;;;;;;;;;;5107422;28;20027;-69
2021/08/31 12:30:42;;;;;;;21.73;6.65;;;;;;;;;;5113492;28;20019;-69
2021/08/31 12:33:09;;;;;;;26.95;6.70;;;;;;;;;;5105343;28;20034;-69
2021/08/31 12:35:39;;;;;;;16.70;5.57;;;;;;;;;;5108563;28;20318;-70
2021/08/31 12:38:12;;;;;;;20.55;5.97;;;;;;;;;;5107278;28;20492;-70
2021/08/31 12:40:54;;;;;;;26.42;6.07;;;;;;;;;;5109527;28;20035;-70
2021/08/31 12:43:20;;;;;;;21.85;6.15;;;;;;;;;;5085214;28;20041;-71
2021/08/31 12:45:50;;;;;;;22.08;6.20;;;;;;;;;;5110843;28;20216;-71
2021/08/31 12:48:16;;;;;;;15.68;5.82;;;;;;;;;;5091118;28;20035;-72
2021/08/31 12:50:55;;;;;;;21.70;5.80;;;;;;;;;;5108404;28;20099;-69
2021/08/31 12:53:34;;;;;;;24.35;6.47;;;;;;;;;;5103549;28;20035;-71
2021/08/31 12:56:10;;;;;;;25.33;7.53;;;;;;;;;;5090639;28;20615;-71
2021/08/31 12:58:37;;;;;;;18.48;5.63;;;;;;;;;;5111272;28;20028;-73
2021/08/31 13:01:03;;;;;;;20.75;6.18;;;;;;;;;;5086691;28;20084;-69
2021/08/31 13:03:30;;;;;;;15.75;6.03;;;;;;;;;;5100128;28;20027;-71
2021/08/31 13:05:56;;;;;;;19.20;5.90;;;;;;;;;;5102565;28;20032;-73
2021/08/31 13:08:22;;;;;;;23.55;6.80;;;;;;;;;;5088601;28;20547;-70
2021/08/31 13:10:48;;;;;;;20.52;5.97;;;;;;;;;;5108836;28;20026;-70
2021/08/31 13:13:25;;;;;;;23.33;6.30;;;;;;;;;;5100808;28;20035;-69
2021/08/31 13:15:51;;;;;;;16.38;5.75;;;;;;;;;;5107482;28;20077;-69
2021/08/31 13:18:17;;;;;;;20.92;6.50;;;;;;;;;;5105424;28;20032;-70
2021/08/31 13:20:43;;;;;;;17.65;5.90;;;;;;;;;;5101890;28;20031;-72
2021/08/31 13:23:09;;;;;;;20.15;5.55;;;;;;;;;;5100284;28;20035;-70
2021/08/31 13:25:35;;;;;;;18.20;5.95;;;;;;;;;;5105165;28;20028;-69
2021/08/31 13:28:01;;;;;;;21.13;6.05;;;;;;;;;;5108371;28;20058;-69
2021/08/31 13:30:27;;;;;;;15.77;5.70;;;;;;;;;;5108294;28;20088;-71
2021/08/31 13:32:53;;;;;;;20.63;5.80;;;;;;;;;;5096737;28;20024;-70
2021/08/31 13:35:19;;;;;;;17.67;5.97;;;;;;;;;;5102268;28;20024;-71
2021/08/31 13:37:45;;;;;;;17.50;5.35;;;;;;;;;;5088478;28;20405;-69
2021/08/31 13:40:12;;;;;;;19.55;6.22;;;;;;;;;;5085865;28;20060;-69
2021/08/31 13:42:38;;;;;;;21.15;6.10;;;;;;;;;;5096588;28;20101;-71
2021/08/31 13:45:04;;;;;;;14.93;5.35;;;;;;;;;;5084245;28;20378;-71
2021/08/31 13:47:30;;;;;;;20.60;6.15;;;;;;;;;;5103311;28;20051;-70
2021/08/31 13:49:56;;;;;;;16.38;5.68;;;;;;;;;;5087591;28;20494;-69
2021/08/31 13:52:22;;;;;;;19.52;6.25;;;;;;;;;;5101778;28;20023;-68
2021/08/31 13:54:48;;;;;;;22.15;5.65;;;;;;;;;;5105682;28;20510;-69
2021/08/31 13:57:15;;;;;;;23.92;6.45;;;;;;;;;;5103742;28;20110;-70
2021/08/31 13:59:41;;;;;;;16.77;5.68;;;;;;;;;;5102543;28;20058;-70
2021/08/31 14:02:07;;;;;;;22.00;5.60;;;;;;;;;;5103613;28;20526;-71
2021/08/31 14:04:33;;;;;;;19.67;5.57;;;;;;;;;;5098874;28;20019;-70
2021/08/31 14:06:59;;;;;;;20.15;5.45;;;;;;;;;;5103920;28;20506;-71
2021/08/31 14:09:25;;;;;;;17.17;5.32;;;;;;;;;;5077290;28;20433;-71
2021/08/31 14:11:51;;;;;;;16.77;6.18;;;;;;;;;;5103410;28;20027;-72
2021/08/31 14:14:17;;;;;;;19.83;5.57;;;;;;;;;;5084921;28;20032;-70
2021/08/31 14:16:43;;;;;;;28.50;5.18;;;;;;;;;;5108922;28;20027;-71
2021/08/31 14:19:09;;;;;;;20.48;5.72;;;;;;;;;;5109181;28;20016;-70
2021/08/31 14:21:37;;;;;;;13.95;5.05;;;;;;;;;;5102811;28;20043;-69
2021/08/31 14:24:03;;;;;;;18.80;4.90;;;;;;;;;;5100776;28;20020;-72
2021/08/31 14:26:29;;;;;;;18.27;4.50;;;;;;;;;;5100750;28;20019;-68